Time;durP1;ratioP1;P1;durP2;ratioP2;P2;SDS_P1;SDS_P2;PMS_P1;PMS_P2;Temp;Humidity;BMP_temperature;BMP_pressure;BME280_temperature;BME280_humidity;BME280_pressure;Samples;Min_cycle;Max_cycle;Signal;HPM_P1;HPM_P2
2022/01/19 00:01:09;;;;;;;7.23;6.53;;;;;;;2.65;86.41;98124.69;5036145;28;20214;-69
2022/01/19 00:03:36;;;;;;;6.80;6.20;;;;;;;2.64;86.79;98117.78;5041275;28;20215;-69
2022/01/19 00:06:02;;;;;;;7.13;6.40;;;;;;;2.68;86.46;98101.06;5048665;28;20238;-69
2022/01/19 00:08:29;;;;;;;6.67;6.03;;;;;;;2.69;85.94;98079.28;5035492;28;20208;-70
2022/01/19 00:10:56;;;;;;;8.03;6.60;;;;;;;2.75;85.11;98072.94;5038704;28;20223;-68
2022/01/19 00:13:22;;;;;;;7.27;6.57;;;;;;;2.77;84.84;98060.66;5049534;28;20202;-67
2022/01/19 00:15:49;;;;;;;7.63;6.83;;;;;;;2.73;85.05;98053.88;5048037;28;20211;-69
2022/01/19 00:18:19;;;;;;;7.97;6.93;;;;;;;2.65;85.98;98062.03;5035346;28;20203;-69
2022/01/19 00:20:46;;;;;;;7.37;6.57;;;;;;;2.65;86.32;98059.41;5035519;28;20211;-69
2022/01/19 00:23:15;;;;;;;6.90;6.30;;;;;;;2.63;86.31;98069.03;5035781;28;20211;-69
2022/01/19 00:25:42;;;;;;;6.77;6.13;;;;;;;2.68;86.49;98080.19;5035287;28;20210;-68
2022/01/19 00:28:09;;;;;;;7.67;6.97;;;;;;;2.74;86.19;98087.75;5035644;28;20219;-69
2022/01/19 00:30:35;;;;;;;8.00;7.07;;;;;;;2.85;85.37;98090.81;5035537;28;20225;-70
2022/01/19 00:33:02;;;;;;;8.77;7.80;;;;;;;2.87;84.94;98098.59;5043930;28;20218;-69
2022/01/19 00:35:29;;;;;;;9.03;7.53;;;;;;;2.88;84.92;98108.97;5040083;28;20207;-70
2022/01/19 00:37:56;;;;;;;8.33;7.43;;;;;;;2.86;86.59;98097.75;5036301;28;20222;-70
2022/01/19 00:40:22;;;;;;;7.73;7.03;;;;;;;2.89;86.08;98088.94;5053962;28;20227;-70
2022/01/19 00:42:50;;;;;;;7.57;6.87;;;;;;;2.87;86.04;98082.94;5042042;28;20211;-70
2022/01/19 00:45:16;;;;;;;7.50;6.80;;;;;;;2.84;86.41;98078.66;5037242;28;20222;-68
2022/01/19 00:47:43;;;;;;;7.77;7.03;;;;;;;2.86;86.64;98074.22;5036438;28;20208;-69
2022/01/19 00:50:12;;;;;;;8.63;7.60;;;;;;;2.84;85.76;98069.97;5039564;28;20215;-68
2022/01/19 00:52:40;;;;;;;9.23;7.87;;;;;;;2.79;86.99;98062.31;5070326;28;20220;-69
2022/01/19 00:55:10;;;;;;;8.33;7.43;;;;;;;2.88;85.96;98066.31;5062820;28;20241;-69
2022/01/19 00:57:37;;;;;;;8.83;7.93;;;;;;;2.91;85.16;98067.03;5061856;28;20202;-70
2022/01/19 01:00:05;;;;;;;9.50;8.50;;;;;;;2.92;85.23;98066.13;5048823;28;20215;-71
2022/01/19 01:02:32;;;;;;;9.90;8.90;;;;;;;2.84;84.81;98062.97;5044324;28;20275;-70
2022/01/19 01:04:58;;;;;;;9.73;8.73;;;;;;;2.94;85.01;98064.31;5051672;28;20210;-69
2022/01/19 01:07:25;;;;;;;9.50;8.23;;;;;;;2.94;84.28;98060.88;5041453;28;20253;-68
2022/01/19 01:09:53;;;;;;;9.47;8.57;;;;;;;2.96;84.98;98066.88;5042457;28;20234;-69
2022/01/19 01:12:25;;;;;;;10.80;9.00;;;;;;;2.96;84.59;98065.09;5041923;28;20231;-68
2022/01/19 01:20:20;;;;;;;11.47;8.73;;;;;;;2.85;84.26;98028.13;5058971;28;20222;-69
2022/01/19 01:22:47;;;;;;;8.67;7.77;;;;;;;2.88;84.23;98033.22;5068767;28;20217;-71
2022/01/19 01:25:15;;;;;;;9.40;8.10;;;;;;;2.85;85.08;98022.88;5056013;28;20207;-68
2022/01/19 01:27:41;;;;;;;10.30;8.47;;;;;;;2.84;84.67;98023.78;5039336;28;20219;-67
2022/01/19 01:30:09;;;;;;;8.83;8.00;;;;;;;2.89;84.62;98034.06;5039486;28;20224;-68
2022/01/19 01:32:35;;;;;;;9.80;8.90;;;;;;;2.83;86.29;98045.63;5050313;28;20237;-68
2022/01/19 01:35:02;;;;;;;9.40;8.50;;;;;;;2.87;85.30;98054.19;5058919;28;20199;-68
2022/01/19 01:37:28;;;;;;;10.63;8.73;;;;;;;2.89;85.14;98053.19;5058665;28;20207;-69
2022/01/19 01:39:56;;;;;;;8.77;7.87;;;;;;;2.79;85.87;98053.63;5055113;28;20560;-67
2022/01/19 01:42:24;;;;;;;9.83;8.90;;;;;;;2.79;86.27;98051.88;5046936;28;20379;-70
2022/01/19 01:44:53;;;;;;;9.47;8.40;;;;;;;2.81;85.18;98060.50;5052238;28;20584;-69
2022/01/19 01:47:20;;;;;;;9.20;8.40;;;;;;;2.87;85.76;98048.97;5038840;28;20252;-69
2022/01/19 01:53:26;;;;;;;9.50;8.60;;;;;;;2.88;85.82;98038.44;5037446;28;20300;-68
2022/01/19 01:55:22;;;;;;;13.53;11.87;;;;;;;2.88;84.17;98019.28;5040325;28;20217;-69
2022/01/19 01:57:50;;;;;;;13.77;11.77;;;;;;;2.87;84.78;97999.31;5060395;28;20206;-69
2022/01/19 02:00:20;;;;;;;13.07;11.73;;;;;;;2.89;84.77;98002.72;5060744;28;20198;-70
2022/01/19 02:02:47;;;;;;;13.10;11.40;;;;;;;2.86;84.76;97995.84;5052635;28;20222;-68
2022/01/19 02:05:14;;;;;;;13.17;11.30;;;;;;;2.88;84.92;97994.00;5063559;28;20207;-68
2022/01/19 02:07:46;;;;;;;13.50;12.10;;;;;;;2.91;84.44;97996.50;5080703;28;20205;-69
2022/01/19 02:10:29;;;;;;;13.60;12.30;;;;;;;2.95;84.48;97990.25;5080662;28;20197;-68
2022/01/19 02:15:52;;;;;;;16.47;13.17;;;;;;;2.92;82.57;97982.53;5053431;28;20217;-68
2022/01/19 02:23:50;;;;;;;20.93;16.63;;;;;;;3.06;81.53;97978.47;5051741;28;20222;-68
2022/01/19 02:26:23;;;;;;;20.67;16.83;;;;;;;3.12;81.62;97967.78;5037581;28;20579;-69
2022/01/19 02:29:02;;;;;;;20.87;17.33;;;;;;;3.12;80.97;97954.72;5038197;28;20210;-69
2022/01/19 02:40:13;;;;;;;24.03;19.37;;;;;;;3.17;79.63;97952.75;5019879;28;20274;-70
2022/01/19 02:42:52;;;;;;;22.90;18.27;;;;;;;3.11;80.11;97955.63;5002669;28;20204;-70
2022/01/19 02:50:48;;;;;;;22.90;18.97;;;;;;;3.12;80.39;97946.88;5052853;28;20206;-69
2022/01/19 02:53:16;;;;;;;21.40;19.10;;;;;;;3.07;80.81;97941.84;5058823;28;20231;-69
2022/01/19 02:55:42;;;;;;;21.43;19.10;;;;;;;3.12;81.39;97942.47;5062778;28;20207;-70
2022/01/19 02:58:09;;;;;;;22.47;19.97;;;;;;;3.12;81.37;97937.25;5067286;28;20206;-70
2022/01/19 03:08:50;;;;;;;25.47;22.00;;;;;;;3.11;79.78;97913.81;5057590;28;20315;-68
2022/01/19 03:11:18;;;;;;;24.20;21.23;;;;;;;3.07;80.55;97920.09;5060785;28;20202;-68
2022/01/19 03:13:45;;;;;;;24.17;20.73;;;;;;;3.06;81.16;97918.38;5045387;28;20221;-68
2022/01/19 03:16:12;;;;;;;24.03;20.83;;;;;;;3.04;81.44;97912.38;5049302;28;20222;-68
2022/01/19 03:18:39;;;;;;;25.63;21.27;;;;;;;2.88;81.29;97913.03;5038114;28;20642;-69
2022/01/19 03:21:06;;;;;;;26.97;21.77;;;;;;;2.92;80.27;97909.38;5037879;28;20218;-70
2022/01/19 03:23:32;;;;;;;27.50;22.40;;;;;;;3.00;80.43;97912.50;5039040;28;20299;-68
2022/01/19 03:26:04;;;;;;;25.03;20.57;;;;;;;3.02;80.93;97909.81;5038525;28;20234;-68
2022/01/19 03:28:31;;;;;;;24.63;21.53;;;;;;;3.01;80.69;97908.16;5038805;28;20206;-69
2022/01/19 03:30:57;;;;;;;23.43;20.17;;;;;;;3.01;80.95;97903.75;5035056;28;20253;-70
2022/01/19 03:33:24;;;;;;;24.20;20.80;;;;;;;2.94;80.73;97901.47;5047201;28;20226;-69
2022/01/19 03:35:51;;;;;;;23.77;20.17;;;;;;;2.93;82.01;97905.00;5058458;28;20221;-70
2022/01/19 03:38:17;;;;;;;25.50;20.33;;;;;;;2.95;81.43;97906.63;5045910;28;20210;-70
2022/01/19 03:40:44;;;;;;;25.27;21.43;;;;;;;2.88;81.92;97901.72;5049375;28;20214;-69
2022/01/19 03:43:12;;;;;;;25.00;20.80;;;;;;;2.87;81.57;97895.66;5038579;28;20235;-68
2022/01/19 03:45:38;;;;;;;26.93;21.33;;;;;;;2.78;81.82;97893.44;5037129;28;20218;-69
2022/01/19 03:48:17;;;;;;;23.40;20.57;;;;;;;2.87;82.17;97900.88;5036036;28;20214;-68
2022/01/19 03:50:44;;;;;;;25.13;19.50;;;;;;;2.83;81.96;97901.94;5049892;28;20267;-69
2022/01/19 03:53:10;;;;;;;23.73;20.43;;;;;;;2.70;82.78;97892.91;5036558;28;20242;-68
2022/01/19 03:55:37;;;;;;;24.83;20.77;;;;;;;2.73;81.96;97898.00;5036210;28;20216;-69
2022/01/19 03:58:03;;;;;;;24.67;20.73;;;;;;;2.58;83.72;97896.03;5045990;28;20637;-67
2022/01/19 04:00:34;;;;;;;25.83;21.07;;;;;;;2.57;82.54;97886.50;5042848;28;20215;-67
2022/01/19 04:03:01;;;;;;;24.47;20.70;;;;;;;2.47;82.96;97882.59;5047754;28;20207;-69
2022/01/19 04:05:39;;;;;;;27.47;23.37;;;;;;;2.43;84.00;97883.63;5052037;28;20265;-69
2022/01/19 04:08:06;;;;;;;23.43;20.33;;;;;;;2.42;83.48;97876.69;5056307;28;20213;-69
2022/01/19 04:10:32;;;;;;;24.00;20.93;;;;;;;2.26;83.88;97880.84;5041705;28;20214;-68
2022/01/19 04:13:10;;;;;;;23.97;20.37;;;;;;;2.18;84.40;97880.31;5036473;28;20551;-69
2022/01/19 04:15:37;;;;;;;24.87;19.27;;;;;;;2.19;84.16;97877.66;5036448;28;20258;-68
2022/01/19 04:18:04;;;;;;;24.07;20.30;;;;;;;2.09;84.56;97880.69;5039041;28;20534;-69
2022/01/19 04:20:37;;;;;;;25.43;20.13;;;;;;;2.05;85.75;97877.34;5038382;28;20211;-71
2022/01/19 04:23:04;;;;;;;24.87;20.40;;;;;;;2.00;85.13;97882.72;5038773;28;20207;-69
2022/01/19 04:25:30;;;;;;;24.00;20.53;;;;;;;2.02;85.21;97871.41;5038557;28;20222;-68
2022/01/19 04:27:57;;;;;;;22.77;19.17;;;;;;;2.00;85.01;97868.84;5036064;28;20218;-68
2022/01/19 04:30:27;;;;;;;23.23;20.10;;;;;;;1.99;85.74;97882.78;5035410;28;20221;-69
2022/01/19 04:33:04;;;;;;;22.67;19.47;;;;;;;1.93;85.67;97878.66;5039960;28;20225;-68
2022/01/19 04:35:34;;;;;;;24.03;20.17;;;;;;;1.88;86.46;97877.97;5055285;28;20205;-69
2022/01/19 04:38:28;;;;;;;25.67;21.73;;;;;;;1.90;85.92;97878.78;5038776;28;20212;-70
2022/01/19 04:44:05;;;;;;;25.57;20.80;;;;;;;1.92;86.45;97878.72;5035083;28;20205;-68
2022/01/19 04:47:07;;;;;;;24.23;20.20;;;;;;;1.77;87.28;97869.72;5055742;28;20397;-68
2022/01/19 05:03:21;;;;;;;25.27;21.70;;;;;;;1.78;87.98;97862.75;5056928;28;20217;-70
2022/01/19 05:05:56;;;;;;;27.20;21.23;;;;;;;1.79;87.22;97854.88;5051781;28;20294;-68
2022/01/19 05:08:40;;;;;;;25.63;20.33;;;;;;;1.80;88.00;97855.75;5037265;28;20242;-68
2022/01/19 05:13:52;;;;;;;27.53;20.80;;;;;;;1.86;87.24;97856.34;5034599;28;20229;-69
2022/01/19 05:16:20;;;;;;;26.87;21.47;;;;;;;1.87;86.98;97858.06;5035112;28;20213;-69
2022/01/19 05:18:46;;;;;;;28.20;22.37;;;;;;;1.86;87.45;97855.50;5034711;28;20641;-69
2022/01/19 05:21:15;;;;;;;25.30;21.13;;;;;;;1.83;87.24;97851.25;5046488;28;20539;-68
2022/01/19 05:23:41;;;;;;;25.27;21.23;;;;;;;1.77;88.27;97854.06;5036005;28;20238;-69
2022/01/19 05:26:08;;;;;;;28.50;22.57;;;;;;;1.78;88.23;97855.78;5034816;28;20214;-70
2022/01/19 05:28:34;;;;;;;25.80;20.77;;;;;;;1.85;87.71;97853.78;5035149;28;20214;-69
2022/01/19 05:31:01;;;;;;;28.50;22.57;;;;;;;1.85;87.67;97849.41;5034790;28;20214;-71
2022/01/19 05:33:27;;;;;;;29.40;22.67;;;;;;;1.90;87.58;97842.28;5044538;28;20221;-68
2022/01/19 05:35:54;;;;;;;26.87;21.73;;;;;;;1.90;86.91;97842.28;5044014;28;20701;-69
2022/01/19 05:38:22;;;;;;;28.47;22.00;;;;;;;1.89;88.79;97839.72;5054357;28;20213;-69
2022/01/19 05:40:48;;;;;;;26.73;22.23;;;;;;;1.92;88.62;97842.19;5058616;28;20219;-70
2022/01/19 05:43:14;;;;;;;28.23;22.43;;;;;;;1.95;87.88;97845.53;5040023;28;20211;-69
2022/01/19 05:45:41;;;;;;;28.93;23.03;;;;;;;1.91;87.88;97838.72;5038690;28;20566;-69
2022/01/19 05:48:08;;;;;;;30.00;23.33;;;;;;;1.94;88.09;97838.63;5038453;28;20218;-68
2022/01/19 05:50:35;;;;;;;28.70;23.13;;;;;;;1.98;87.64;97844.59;5037998;28;20246;-69
2022/01/19 05:53:01;;;;;;;32.17;24.60;;;;;;;2.09;86.81;97844.16;5037925;28;20301;-69
2022/01/19 05:55:29;;;;;;;31.23;24.53;;;;;;;2.18;86.22;97851.59;5038093;28;20209;-69
2022/01/19 05:57:56;;;;;;;28.43;23.00;;;;;;;2.18;85.31;97847.22;5038416;28;20214;-70
2022/01/19 06:00:22;;;;;;;28.37;22.27;;;;;;;2.24;85.38;97846.97;5038309;28;20217;-69
2022/01/19 06:02:49;;;;;;;28.73;22.53;;;;;;;2.23;85.91;97849.66;5048752;28;20674;-69
2022/01/19 06:05:16;;;;;;;28.67;23.53;;;;;;;2.25;85.64;97847.81;5057179;28;20298;-69
2022/01/19 06:07:45;;;;;;;27.93;22.13;;;;;;;2.25;85.05;97847.81;5038387;28;20210;-68
2022/01/19 06:10:42;;;;;;;27.93;23.03;;;;;;;2.24;86.12;97841.75;5041432;28;20201;-70
2022/01/19 06:13:01;;;;;;;30.43;23.33;;;;;;;2.24;85.11;97831.31;5046608;28;20248;-70
2022/01/19 06:15:27;;;;;;;29.90;24.40;;;;;;;2.23;85.58;97831.41;5037780;28;20633;-71
2022/01/19 06:17:54;;;;;;;27.93;23.53;;;;;;;2.26;85.62;97828.66;5038333;28;20629;-71
2022/01/19 06:20:20;;;;;;;29.33;23.63;;;;;;;2.26;85.18;97828.66;5037371;28;20221;-70
2022/01/19 06:22:47;;;;;;;31.30;25.00;;;;;;;2.19;84.93;97822.00;5037634;28;20207;-72
2022/01/19 06:25:14;;;;;;;31.67;26.60;;;;;;;2.08;84.45;97824.19;5042792;28;20216;-70
2022/01/19 06:27:40;;;;;;;33.97;26.00;;;;;;;2.11;85.26;97831.88;5045724;28;20201;-70
2022/01/19 06:30:09;;;;;;;32.23;25.20;;;;;;;2.11;84.77;97824.06;5037760;28;20218;-70
2022/01/19 06:32:36;;;;;;;32.50;25.70;;;;;;;2.12;84.94;97817.94;5040440;28;20230;-70
2022/01/19 06:35:02;;;;;;;30.70;25.03;;;;;;;2.12;84.11;97812.72;5057389;28;20209;-70
2022/01/19 06:37:29;;;;;;;30.73;24.70;;;;;;;2.10;84.51;97822.34;5049022;28;20278;-71
2022/01/19 06:39:55;;;;;;;33.33;24.83;;;;;;;2.09;84.11;97810.22;5054494;28;20225;-71
2022/01/19 06:42:22;;;;;;;32.47;25.93;;;;;;;2.05;84.28;97814.72;5065226;28;20242;-70
2022/01/19 06:44:48;;;;;;;31.77;25.40;;;;;;;2.16;83.64;97816.91;5042909;28;20529;-70
2022/01/19 06:47:16;;;;;;;31.07;25.53;;;;;;;2.11;83.79;97818.84;5040496;28;20219;-70
2022/01/19 06:49:43;;;;;;;33.87;25.80;;;;;;;1.91;84.68;97812.66;5055726;28;20210;-69
2022/01/19 06:52:10;;;;;;;35.43;27.60;;;;;;;1.93;85.48;97816.06;5061666;28;20210;-71
2022/01/19 06:54:36;;;;;;;34.37;26.90;;;;;;;1.90;85.32;97821.41;5050714;28;20230;-71
2022/01/19 06:57:03;;;;;;;33.47;26.17;;;;;;;1.93;85.51;97816.06;5048842;28;20214;-71
2022/01/19 06:59:29;;;;;;;32.80;25.83;;;;;;;2.04;84.90;97818.25;5044533;28;20294;-71
2022/01/19 07:01:56;;;;;;;33.87;26.33;;;;;;;2.15;83.62;97820.41;5055330;28;20218;-70
2022/01/19 07:04:23;;;;;;;32.07;24.87;;;;;;;2.12;84.09;97820.53;5060205;28;20194;-71
2022/01/19 07:06:50;;;;;;;33.63;25.30;;;;;;;2.12;83.64;97816.19;5068668;28;20238;-71
2022/01/19 07:09:16;;;;;;;31.77;25.10;;;;;;;2.06;84.21;97815.56;5058795;28;20260;-70
2022/01/19 07:11:43;;;;;;;30.80;24.53;;;;;;;2.06;83.31;97810.34;5075151;28;20217;-71
2022/01/19 07:14:12;;;;;;;34.77;26.37;;;;;;;2.02;84.07;97804.38;5053072;28;20554;-70
2022/01/19 07:16:39;;;;;;;34.23;26.20;;;;;;;1.91;84.48;97814.44;5057132;28;20602;-70
2022/01/19 07:19:05;;;;;;;34.73;26.63;;;;;;;1.95;84.51;97814.22;5037791;28;20213;-70
2022/01/19 07:21:33;;;;;;;74.17;32.67;;;;;;;1.87;85.30;97810.25;5038214;28;20214;-70
2022/01/19 07:23:59;;;;;;;47.87;28.07;;;;;;;1.91;85.64;97811.84;5036758;28;20249;-70
2022/01/19 07:26:26;;;;;;;32.57;25.83;;;;;;;1.96;85.15;97820.31;5037173;28;20213;-70
2022/01/19 07:28:52;;;;;;;34.27;26.77;;;;;;;1.91;85.19;97823.09;5048394;28;20214;-70
2022/01/19 07:31:19;;;;;;;35.37;26.83;;;;;;;1.99;86.02;97823.63;5035945;28;20218;-71
2022/01/19 07:33:45;;;;;;;34.50;26.87;;;;;;;1.94;85.27;97827.34;5041347;28;20230;-71
2022/01/19 07:36:12;;;;;;;34.90;26.33;;;;;;;2.03;84.40;97816.53;5052515;28;20266;-70
2022/01/19 07:38:40;;;;;;;36.50;27.10;;;;;;;1.98;83.78;97819.31;5040602;28;20210;-69
2022/01/19 07:41:06;;;;;;;38.47;27.03;;;;;;;2.10;84.89;97822.34;5055580;28;20209;-71
2022/01/19 07:43:33;;;;;;;38.43;26.63;;;;;;;1.99;85.14;97813.19;5055713;28;20202;-70
2022/01/19 07:45:59;;;;;;;35.80;27.20;;;;;;;2.06;84.70;97815.56;5042422;28;20209;-71
2022/01/19 07:48:25;;;;;;;33.40;26.30;;;;;;;2.15;84.48;97818.66;5047467;28;20512;-70
2022/01/19 07:50:52;;;;;;;33.43;25.87;;;;;;;2.17;84.21;97809.00;5039196;28;20583;-70
2022/01/19 07:53:18;;;;;;;31.33;25.03;;;;;;;2.18;83.99;97805.47;5055823;28;20270;-70
2022/01/19 07:55:47;;;;;;;32.43;25.73;;;;;;;2.20;83.86;97811.47;5055640;28;20225;-71
2022/01/19 07:58:14;;;;;;;32.47;26.07;;;;;;;2.20;83.89;97801.03;5055674;28;20206;-71
2022/01/19 08:00:42;;;;;;;34.77;26.47;;;;;;;2.26;83.04;97807.78;5055764;28;20217;-70
2022/01/19 08:03:08;;;;;;;34.37;27.30;;;;;;;2.23;83.14;97807.91;5051700;28;20205;-70
2022/01/19 08:05:35;;;;;;;33.77;26.70;;;;;;;2.28;81.90;97805.94;5055839;28;20250;-71
2022/01/19 08:08:02;;;;;;;34.23;26.70;;;;;;;2.24;81.50;97814.81;5055662;28;20208;-70
2022/01/19 08:10:29;;;;;;;34.27;26.97;;;;;;;2.08;83.38;97813.75;5052238;28;20206;-70
2022/01/19 08:13:00;;;;;;;33.27;26.03;;;;;;;2.20;82.50;97806.25;5040586;28;20629;-69
2022/01/19 08:15:26;;;;;;;34.40;26.30;;;;;;;2.17;83.86;97802.91;5051999;28;20685;-71
2022/01/19 08:17:53;;;;;;;35.77;26.87;;;;;;;2.07;82.77;97817.25;5035581;28;20210;-69
2022/01/19 08:20:20;;;;;;;34.00;24.97;;;;;;;2.10;84.02;97812.75;5035766;28;20246;-70
2022/01/19 08:22:46;;;;;;;31.97;26.33;;;;;;;2.11;83.10;97811.00;5047104;28;20202;-70
2022/01/19 08:25:13;;;;;;;32.07;25.30;;;;;;;2.31;84.08;97814.47;5051284;28;20206;-70
2022/01/19 08:27:39;;;;;;;32.07;24.70;;;;;;;2.37;82.81;97808.19;5035706;28;20224;-71
2022/01/19 08:30:10;;;;;;;35.23;26.07;;;;;;;2.09;82.42;97815.44;5035716;28;20230;-70
2022/01/19 08:32:37;;;;;;;32.17;25.13;;;;;;;2.32;82.66;97807.50;5038531;28;20226;-69
2022/01/19 08:35:04;;;;;;;32.07;25.03;;;;;;;2.44;82.24;97807.00;5051177;28;20227;-70
2022/01/19 08:37:31;;;;;;;31.13;24.50;;;;;;;2.63;81.15;97815.72;5047392;28;20212;-70
2022/01/19 08:39:58;;;;;;;31.80;24.87;;;;;;;2.61;81.23;97814.97;5055245;28;20206;-70
2022/01/19 08:42:25;;;;;;;30.97;24.27;;;;;;;2.57;80.92;97812.53;5055450;28;20223;-70
2022/01/19 08:44:51;;;;;;;29.80;23.73;;;;;;;2.49;80.46;97815.47;5036477;28;20222;-70
2022/01/19 08:47:19;;;;;;;27.40;23.07;;;;;;;2.60;80.89;97810.66;5035439;28;20210;-70
2022/01/19 08:49:46;;;;;;;28.27;23.17;;;;;;;2.75;80.23;97824.81;5055172;28;20210;-71
2022/01/19 08:52:12;;;;;;;33.77;24.20;;;;;;;2.51;79.80;97826.72;5044262;28;20203;-69
2022/01/19 08:54:39;;;;;;;28.57;23.37;;;;;;;2.63;80.71;97823.56;5035481;28;20695;-69
2022/01/19 08:57:05;;;;;;;29.07;23.93;;;;;;;2.57;80.62;97829.06;5035745;28;20233;-70
2022/01/19 08:59:32;;;;;;;28.73;23.87;;;;;;;2.58;80.41;97822.94;5035603;28;20211;-70
2022/01/19 09:01:59;;;;;;;28.70;23.07;;;;;;;2.70;80.44;97834.59;5039673;28;20218;-70
2022/01/19 09:04:27;;;;;;;30.47;23.30;;;;;;;2.70;80.49;97826.75;5043402;28;20198;-71
2022/01/19 09:06:55;;;;;;;29.53;22.80;;;;;;;2.94;80.18;97823.09;5055417;28;20233;-70
2022/01/19 09:09:22;;;;;;;32.47;24.17;;;;;;;2.68;79.82;97821.63;5069361;28;20297;-71
2022/01/19 09:11:49;;;;;;;27.30;22.90;;;;;;;2.82;79.05;97824.47;5077551;28;20205;-70
2022/01/19 09:14:15;;;;;;;28.03;23.10;;;;;;;3.14;78.64;97819.59;5069821;28;20245;-71
2022/01/19 09:16:43;;;;;;;28.77;23.90;;;;;;;3.11;78.10;97815.34;5044368;28;20643;-69
2022/01/19 09:19:12;;;;;;;28.57;22.70;;;;;;;3.44;78.37;97820.78;5048154;28;20710;-70
2022/01/19 09:21:39;;;;;;;27.17;22.30;;;;;;;3.31;76.54;97822.28;5043742;28;20229;-71
2022/01/19 09:24:06;;;;;;;27.43;22.57;;;;;;;3.32;77.74;97818.75;5039108;28;20211;-70
2022/01/19 09:26:33;;;;;;;27.53;22.30;;;;;;;3.22;76.09;97825.31;5041536;28;20219;-68
2022/01/19 09:28:59;;;;;;;28.47;22.17;;;;;;;3.23;77.67;97821.78;5049891;28;20211;-69
2022/01/19 09:31:26;;;;;;;24.80;20.97;;;;;;;3.28;78.42;97817.19;5038871;28;20238;-70
2022/01/19 09:33:57;;;;;;;25.70;22.43;;;;;;;3.36;76.61;97817.69;5051087;28;20666;-69
2022/01/19 09:36:32;;;;;;;27.70;22.00;;;;;;;3.45;76.72;97819.88;5039714;28;20640;-70
2022/01/19 09:39:01;;;;;;;26.57;22.23;;;;;;;4.20;73.80;97809.28;5046423;28;20253;-69
2022/01/19 09:41:28;;;;;;;28.23;22.80;;;;;;;4.57;72.55;97808.31;5058751;28;20221;-69
2022/01/19 09:43:55;;;;;;;24.50;21.37;;;;;;;5.17;70.34;97799.03;5046830;28;20273;-70
2022/01/19 09:46:22;;;;;;;26.50;22.63;;;;;;;5.36;68.25;97799.72;5039233;28;20196;-69
2022/01/19 09:48:48;;;;;;;26.90;22.10;;;;;;;4.92;67.70;97795.06;5039211;28;20215;-70
2022/01/19 09:51:15;;;;;;;40.37;22.53;;;;;;;5.21;68.38;97800.56;5039026;28;20639;-71
2022/01/19 09:53:42;;;;;;;23.77;21.20;;;;;;;5.15;66.54;97799.09;5038973;28;20241;-70
2022/01/19 09:56:10;;;;;;;24.27;21.67;;;;;;;5.12;67.26;97795.81;5038534;28;20208;-70
2022/01/19 09:58:37;;;;;;;23.37;20.87;;;;;;;6.24;64.33;97794.78;5039029;28;20531;-71
2022/01/19 10:01:03;;;;;;;24.60;21.17;;;;;;;6.27;63.92;97794.63;5038832;28;20616;-70
2022/01/19 10:03:32;;;;;;;23.03;20.63;;;;;;;6.89;60.36;97788.28;5041653;28;20667;-69
2022/01/19 10:06:03;;;;;;;23.10;20.70;;;;;;;7.36;60.18;97794.13;5051477;28;20253;-69
2022/01/19 10:08:32;;;;;;;24.13;20.93;;;;;;;7.52;58.63;97796.63;5052146;28;20203;-70
2022/01/19 10:11:16;;;;;;;21.93;19.73;;;;;;;9.15;54.21;97787.53;5041486;28;20222;-70
2022/01/19 10:19:24;;;;;;;21.73;19.60;;;;;;;9.98;48.94;97778.91;5026596;28;20378;-70
2022/01/19 10:21:59;;;;;;;21.27;19.17;;;;;;;9.96;51.25;97772.88;5039117;28;20215;-69
2022/01/19 10:24:46;;;;;;;21.27;19.08;;;;;;;9.88;49.38;97769.94;5058354;28;20210;-70
2022/01/19 10:27:42;;;;;;;21.52;19.58;;;;;;;10.75;48.13;97769.63;5038750;28;20291;-71
2022/01/19 10:30:23;;;;;;;22.02;19.80;;;;;;;10.14;49.69;97762.78;5014560;28;20211;-70
2022/01/19 10:32:52;;;;;;;25.48;19.73;;;;;;;9.97;50.63;97765.81;5043357;28;20230;-71
2022/01/19 10:35:22;;;;;;;22.27;20.17;;;;;;;10.71;49.49;97759.41;5042025;28;20219;-71
2022/01/19 10:37:50;;;;;;;21.33;19.42;;;;;;;10.01;49.70;97751.41;5038546;28;20211;-71
2022/01/19 10:40:19;;;;;;;21.30;19.30;;;;;;;9.77;49.73;97747.94;5056239;28;20267;-70
2022/01/19 10:42:47;;;;;;;21.90;19.90;;;;;;;9.33;50.66;97748.44;5058426;28;20211;-70
2022/01/19 10:45:15;;;;;;;22.25;20.05;;;;;;;10.64;47.30;97737.84;5058213;28;20500;-70
2022/01/19 10:47:45;;;;;;;21.67;19.67;;;;;;;10.85;48.01;97740.66;5058506;28;20211;-71
2022/01/19 10:50:13;;;;;;;21.85;19.95;;;;;;;10.54;48.36;97733.38;5058037;28;20218;-70
2022/01/19 10:52:41;;;;;;;23.08;20.90;;;;;;;10.57;48.36;97734.00;5045781;28;20204;-71
2022/01/19 10:55:10;;;;;;;22.58;20.48;;;;;;;10.85;48.67;97722.97;5049338;28;20227;-70
2022/01/19 10:57:40;;;;;;;21.17;19.10;;;;;;;10.74;47.43;97720.31;5040417;28;20211;-71
2022/01/19 11:00:17;;;;;;;21.60;19.50;;;;;;;11.10;48.01;97713.13;5050191;28;20211;-70
2022/01/19 11:02:44;;;;;;;21.73;19.73;;;;;;;12.20;44.75;97711.25;5045729;28;20199;-71
2022/01/19 11:05:11;;;;;;;21.73;19.63;;;;;;;12.00;45.09;97704.13;5060757;28;20210;-72
2022/01/19 11:07:38;;;;;;;21.83;19.83;;;;;;;11.95;45.39;97710.63;5074284;28;20602;-70
2022/01/19 11:10:12;;;;;;;21.63;19.63;;;;;;;12.24;44.50;97704.75;5073427;28;20231;-72
2022/01/19 11:12:45;;;;;;;21.73;19.73;;;;;;;11.65;44.83;97702.50;5048977;28;20282;-71
2022/01/19 11:15:14;;;;;;;21.95;19.75;;;;;;;11.10;45.82;97702.53;5060908;28;20215;-71
2022/01/19 11:17:41;;;;;;;21.35;19.35;;;;;;;11.04;46.19;97703.03;5067551;28;20309;-72
2022/01/19 11:20:10;;;;;;;21.23;19.17;;;;;;;10.85;46.61;97700.97;5069833;28;20210;-71
2022/01/19 11:22:53;;;;;;;21.95;19.77;;;;;;;10.17;48.46;97700.91;5062485;28;20218;-70
2022/01/19 11:25:24;;;;;;;22.17;19.87;;;;;;;9.75;50.37;97702.25;5037538;28;20200;-69
2022/01/19 11:27:51;;;;;;;22.20;19.83;;;;;;;10.33;48.48;97704.13;5037320;28;20238;-69
2022/01/19 11:30:22;;;;;;;21.93;19.70;;;;;;;9.66;49.35;97689.75;5043075;28;20231;-69
2022/01/19 11:33:12;;;;;;;23.10;20.80;;;;;;;8.87;53.26;97688.34;5048142;28;20260;-75
2022/01/19 11:35:39;;;;;;;23.93;19.93;;;;;;;9.00;52.60;97683.91;5050887;28;20227;-76
2022/01/19 11:38:27;;;;;;;23.93;20.00;;;;;;;8.61;53.54;97676.13;5044564;28;20219;-75
2022/01/19 11:40:54;;;;;;;21.93;19.73;;;;;;;8.53;54.85;97667.91;5048426;28;20200;-76
2022/01/19 11:43:23;;;;;;;22.17;19.63;;;;;;;8.26;54.78;97669.75;5055954;28;20188;-77
2022/01/19 11:45:51;;;;;;;21.63;19.33;;;;;;;7.98;56.47;97671.59;5058948;28;20573;-76
2022/01/19 11:48:21;;;;;;;22.20;19.63;;;;;;;8.14;56.71;97666.16;5058195;28;20267;-76
2022/01/19 11:50:49;;;;;;;22.93;20.07;;;;;;;8.18;55.71;97661.53;5046560;28;20222;-76
2022/01/19 11:53:17;;;;;;;22.57;20.17;;;;;;;7.82;57.34;97664.84;5040385;28;20247;-76
2022/01/19 11:56:02;;;;;;;23.97;19.80;;;;;;;7.66;58.78;97658.88;5039261;28;20232;-78
2022/01/19 11:58:28;;;;;;;21.33;19.03;;;;;;;7.42;58.47;97645.53;5059196;28;20210;-77
2022/01/19 12:00:57;;;;;;;22.97;20.43;;;;;;;7.04;60.17;97645.34;5045373;28;20202;-75
2022/01/19 12:03:26;;;;;;;22.17;19.70;;;;;;;6.55;61.16;97641.47;5069402;28;20211;-78
2022/01/19 12:05:53;;;;;;;22.40;19.83;;;;;;;6.30;62.95;97634.22;5072009;28;20686;-74
2022/01/19 12:08:30;;;;;;;25.37;19.97;;;;;;;6.13;63.56;97635.22;5051508;28;20615;-73
2022/01/19 12:11:00;;;;;;;23.13;20.60;;;;;;;5.93;65.44;97636.41;5049733;28;20218;-74
2022/01/19 12:13:34;;;;;;;24.40;20.70;;;;;;;5.85;66.00;97629.88;5059259;28;20268;-79
2022/01/19 12:16:10;;;;;;;22.00;19.67;;;;;;;5.82;66.93;97630.91;5043403;28;20212;-79
2022/01/19 12:18:43;;;;;;;24.60;20.83;;;;;;;5.68;66.84;97623.00;5046628;28;20226;-78
2022/01/19 12:21:12;;;;;;;24.03;20.63;;;;;;;5.62;68.32;97620.72;5046138;28;20207;-69
2022/01/19 12:23:40;;;;;;;22.67;20.17;;;;;;;5.59;68.02;97618.28;5046387;28;20218;-70
2022/01/19 12:26:08;;;;;;;23.23;19.97;;;;;;;5.58;67.79;97616.59;5042913;28;20208;-70
2022/01/19 12:28:39;;;;;;;25.50;20.77;;;;;;;5.74;68.41;97625.25;5040881;28;20204;-69
2022/01/19 12:31:32;;;;;;;24.43;21.43;;;;;;;5.77;67.24;97611.97;5053272;28;20644;-69
2022/01/19 12:34:19;;;;;;;23.83;20.00;;;;;;;5.76;67.70;97615.53;5047547;28;20215;-69
2022/01/19 12:36:48;;;;;;;25.57;21.03;;;;;;;5.93;66.45;97602.28;5037439;28;20539;-69
2022/01/19 12:39:36;;;;;;;23.00;19.63;;;;;;;5.95;67.77;97599.56;5047643;28;20203;-70